sensor_id;sensor_type;location;lat;lon;timestamp;pressure;altitude;pressure_sealevel;temperature;humidity
59939;BME280;45801;51.810;19.444;2023-11-19T00:01:07;99645.83;;;3.21;68.92
59939;BME280;45801;51.810;19.444;2023-11-19T00:03:54;99630.20;;;3.23;68.97
59939;BME280;45801;51.810;19.444;2023-11-19T00:06:20;99626.47;;;3.26;69.06
59939;BME280;45801;51.810;19.444;2023-11-19T00:08:47;99630.69;;;3.29;68.98
59939;BME280;45801;51.810;19.444;2023-11-19T00:11:14;99628.05;;;3.28;68.85
59939;BME280;45801;51.810;19.444;2023-11-19T00:13:42;99630.20;;;3.27;68.96
59939;BME280;45801;51.810;19.444;2023-11-19T00:16:09;99630.66;;;3.29;69.07
59939;BME280;45801;51.810;19.444;2023-11-19T00:18:36;99621.98;;;3.30;68.91
59939;BME280;45801;51.810;19.444;2023-11-19T00:21:03;99626.80;;;3.32;68.64
59939;BME280;45801;51.810;19.444;2023-11-19T00:23:30;99630.73;;;3.34;68.95
59939;BME280;45801;51.810;19.444;2023-11-19T00:25:56;99626.15;;;3.35;68.69
59939;BME280;45801;51.810;19.444;2023-11-19T00:28:24;99624.05;;;3.35;68.62
59939;BME280;45801;51.810;19.444;2023-11-19T00:30:51;99624.43;;;3.35;68.80
59939;BME280;45801;51.810;19.444;2023-11-19T00:33:18;99624.56;;;3.32;68.54
59939;BME280;45801;51.810;19.444;2023-11-19T00:35:44;99627.51;;;3.30;68.52
59939;BME280;45801;51.810;19.444;2023-11-19T00:38:11;99620.21;;;3.28;68.45
59939;BME280;45801;51.810;19.444;2023-11-19T00:40:38;99613.89;;;3.25;68.54
59939;BME280;45801;51.810;19.444;2023-11-19T00:43:04;99603.60;;;3.21;68.79
59939;BME280;45801;51.810;19.444;2023-11-19T00:45:31;99600.23;;;3.20;68.81
59939;BME280;45801;51.810;19.444;2023-11-19T00:47:58;99597.88;;;3.21;68.95
59939;BME280;45801;51.810;19.444;2023-11-19T00:50:26;99595.23;;;3.21;68.99
59939;BME280;45801;51.810;19.444;2023-11-19T00:52:53;99597.79;;;3.20;68.89
59939;BME280;45801;51.810;19.444;2023-11-19T00:55:20;99597.50;;;3.21;68.87
59939;BME280;45801;51.810;19.444;2023-11-19T00:57:47;99588.31;;;3.21;68.95
59939;BME280;45801;51.810;19.444;2023-11-19T01:00:14;99585.88;;;3.23;68.75
59939;BME280;45801;51.810;19.444;2023-11-19T01:02:50;99584.91;;;3.24;68.72
59939;BME280;45801;51.810;19.444;2023-11-19T01:05:16;99579.16;;;3.25;68.73
59939;BME280;45801;51.810;19.444;2023-11-19T01:07:47;99574.00;;;3.30;68.77
59939;BME280;45801;51.810;19.444;2023-11-19T01:10:14;99562.64;;;3.33;68.68
59939;BME280;45801;51.810;19.444;2023-11-19T01:12:42;99557.84;;;3.34;68.62
59939;BME280;45801;51.810;19.444;2023-11-19T01:15:09;99555.86;;;3.33;68.78
59939;BME280;45801;51.810;19.444;2023-11-19T01:17:39;99563.29;;;3.33;68.69
59939;BME280;45801;51.810;19.444;2023-11-19T01:20:07;99569.89;;;3.33;68.34
59939;BME280;45801;51.810;19.444;2023-11-19T01:22:33;99574.20;;;3.33;68.26
59939;BME280;45801;51.810;19.444;2023-11-19T01:25:00;99571.25;;;3.35;68.39
59939;BME280;45801;51.810;19.444;2023-11-19T01:27:27;99566.85;;;3.41;68.66
59939;BME280;45801;51.810;19.444;2023-11-19T01:29:54;99566.27;;;3.63;68.53
59939;BME280;45801;51.810;19.444;2023-11-19T01:32:21;99570.74;;;3.74;67.63
59939;BME280;45801;51.810;19.444;2023-11-19T01:34:48;99564.46;;;3.76;67.79
59939;BME280;45801;51.810;19.444;2023-11-19T01:37:15;99554.41;;;3.73;67.70
59939;BME280;45801;51.810;19.444;2023-11-19T01:39:44;99548.11;;;3.70;67.90
59939;BME280;45801;51.810;19.444;2023-11-19T01:42:12;99536.61;;;3.69;67.76
59939;BME280;45801;51.810;19.444;2023-11-19T01:44:38;99524.38;;;3.68;67.34
59939;BME280;45801;51.810;19.444;2023-11-19T01:47:06;99516.17;;;3.67;67.48
59939;BME280;45801;51.810;19.444;2023-11-19T01:49:33;99510.52;;;3.65;66.97
59939;BME280;45801;51.810;19.444;2023-11-19T01:52:00;99504.89;;;3.62;67.47
59939;BME280;45801;51.810;19.444;2023-11-19T01:54:28;99500.20;;;3.60;67.86
59939;BME280;45801;51.810;19.444;2023-11-19T01:56:57;99495.59;;;3.58;68.08
59939;BME280;45801;51.810;19.444;2023-11-19T01:59:24;99497.83;;;3.56;68.13
59939;BME280;45801;51.810;19.444;2023-11-19T02:01:54;99504.72;;;3.52;67.89
59939;BME280;45801;51.810;19.444;2023-11-19T02:04:21;99505.85;;;3.51;67.61
59939;BME280;45801;51.810;19.444;2023-11-19T02:06:51;99496.70;;;3.52;67.98
59939;BME280;45801;51.810;19.444;2023-11-19T02:09:20;99484.13;;;3.51;68.03
59939;BME280;45801;51.810;19.444;2023-11-19T02:11:47;99478.45;;;3.51;68.06
59939;BME280;45801;51.810;19.444;2023-11-19T02:14:18;99475.64;;;3.51;67.98
59939;BME280;45801;51.810;19.444;2023-11-19T02:16:49;99470.06;;;3.50;68.13
59939;BME280;45801;51.810;19.444;2023-11-19T02:19:19;99469.39;;;3.48;68.09
59939;BME280;45801;51.810;19.444;2023-11-19T02:21:46;99465.54;;;3.48;68.17
59939;BME280;45801;51.810;19.444;2023-11-19T02:24:15;99457.86;;;3.47;67.96
59939;BME280;45801;51.810;19.444;2023-11-19T02:29:16;99448.86;;;3.47;68.17
59939;BME280;45801;51.810;19.444;2023-11-19T02:31:43;99441.49;;;3.43;68.17
59939;BME280;45801;51.810;19.444;2023-11-19T02:34:10;99436.86;;;3.39;67.82
59939;BME280;45801;51.810;19.444;2023-11-19T02:36:39;99434.85;;;3.38;67.64
59939;BME280;45801;51.810;19.444;2023-11-19T02:39:08;99428.77;;;3.40;67.77
59939;BME280;45801;51.810;19.444;2023-11-19T02:41:38;99421.21;;;3.43;67.13
59939;BME280;45801;51.810;19.444;2023-11-19T02:44:06;99416.80;;;3.44;67.29
59939;BME280;45801;51.810;19.444;2023-11-19T02:46:33;99407.80;;;3.42;66.67
59939;BME280;45801;51.810;19.444;2023-11-19T02:49:00;99407.38;;;3.41;66.21
59939;BME280;45801;51.810;19.444;2023-11-19T02:51:27;99398.65;;;3.40;66.65
59939;BME280;45801;51.810;19.444;2023-11-19T02:53:54;99393.66;;;3.41;66.78
59939;BME280;45801;51.810;19.444;2023-11-19T02:56:20;99391.79;;;3.36;66.10
59939;BME280;45801;51.810;19.444;2023-11-19T02:58:52;99383.42;;;3.33;66.93
59939;BME280;45801;51.810;19.444;2023-11-19T03:01:25;99371.02;;;3.31;66.97
59939;BME280;45801;51.810;19.444;2023-11-19T03:03:57;99365.59;;;3.33;67.19
59939;BME280;45801;51.810;19.444;2023-11-19T03:06:24;99358.74;;;3.34;66.91
59939;BME280;45801;51.810;19.444;2023-11-19T03:08:51;99354.41;;;3.34;67.04
59939;BME280;45801;51.810;19.444;2023-11-19T03:11:18;99349.28;;;3.35;67.38
59939;BME280;45801;51.810;19.444;2023-11-19T03:13:44;99340.40;;;3.34;67.39
59939;BME280;45801;51.810;19.444;2023-11-19T03:16:11;99341.88;;;3.33;67.22
59939;BME280;45801;51.810;19.444;2023-11-19T03:18:38;99346.30;;;3.29;65.87
59939;BME280;45801;51.810;19.444;2023-11-19T03:21:06;99352.86;;;3.29;66.38
59939;BME280;45801;51.810;19.444;2023-11-19T03:23:34;99359.85;;;3.30;66.30
59939;BME280;45801;51.810;19.444;2023-11-19T03:26:01;99364.11;;;3.30;65.95
59939;BME280;45801;51.810;19.444;2023-11-19T03:28:32;99361.86;;;3.29;66.26
59939;BME280;45801;51.810;19.444;2023-11-19T03:30:59;99358.07;;;3.32;66.71
59939;BME280;45801;51.810;19.444;2023-11-19T03:33:25;99354.85;;;3.33;66.99
59939;BME280;45801;51.810;19.444;2023-11-19T03:35:56;99349.61;;;3.34;67.21
59939;BME280;45801;51.810;19.444;2023-11-19T03:38:23;99346.31;;;3.37;67.33
59939;BME280;45801;51.810;19.444;2023-11-19T03:40:51;99341.36;;;3.38;67.53
59939;BME280;45801;51.810;19.444;2023-11-19T03:43:17;99343.39;;;3.40;67.69
59939;BME280;45801;51.810;19.444;2023-11-19T03:45:45;99339.50;;;3.41;67.53
59939;BME280;45801;51.810;19.444;2023-11-19T03:48:14;99335.41;;;3.40;67.79
59939;BME280;45801;51.810;19.444;2023-11-19T03:50:43;99332.62;;;3.39;68.26
59939;BME280;45801;51.810;19.444;2023-11-19T03:53:11;99334.04;;;3.42;68.20
59939;BME280;45801;51.810;19.444;2023-11-19T03:55:38;99330.64;;;3.43;67.89
59939;BME280;45801;51.810;19.444;2023-11-19T03:58:05;99322.41;;;3.44;67.86
59939;BME280;45801;51.810;19.444;2023-11-19T04:00:32;99315.20;;;3.47;67.94
59939;BME280;45801;51.810;19.444;2023-11-19T04:02:59;99314.83;;;3.49;67.66
59939;BME280;45801;51.810;19.444;2023-11-19T04:05:27;99309.66;;;3.49;68.01
59939;BME280;45801;51.810;19.444;2023-11-19T04:07:54;99304.07;;;3.46;67.63
59939;BME280;45801;51.810;19.444;2023-11-19T04:10:20;99303.16;;;3.44;67.78
59939;BME280;45801;51.810;19.444;2023-11-19T04:12:48;99298.31;;;3.41;67.59
59939;BME280;45801;51.810;19.444;2023-11-19T04:15:15;99290.39;;;3.42;67.95
59939;BME280;45801;51.810;19.444;2023-11-19T04:17:42;99277.98;;;3.42;68.12
59939;BME280;45801;51.810;19.444;2023-11-19T04:20:09;99269.17;;;3.43;68.26
59939;BME280;45801;51.810;19.444;2023-11-19T04:22:39;99263.77;;;3.40;67.74
59939;BME280;45801;51.810;19.444;2023-11-19T04:25:06;99257.48;;;3.37;67.93
59939;BME280;45801;51.810;19.444;2023-11-19T04:27:33;99253.13;;;3.36;68.02
59939;BME280;45801;51.810;19.444;2023-11-19T04:30:04;99251.05;;;3.39;68.27
59939;BME280;45801;51.810;19.444;2023-11-19T04:32:32;99247.73;;;3.41;68.31
59939;BME280;45801;51.810;19.444;2023-11-19T04:34:58;99247.98;;;3.42;68.26
59939;BME280;45801;51.810;19.444;2023-11-19T04:37:25;99237.31;;;3.43;68.45
59939;BME280;45801;51.810;19.444;2023-11-19T04:39:51;99229.89;;;3.36;67.45
59939;BME280;45801;51.810;19.444;2023-11-19T04:42:18;99226.12;;;3.34;67.61
59939;BME280;45801;51.810;19.444;2023-11-19T04:44:46;99218.08;;;3.35;68.22
59939;BME280;45801;51.810;19.444;2023-11-19T04:47:12;99213.75;;;3.35;68.31
59939;BME280;45801;51.810;19.444;2023-11-19T04:49:40;99211.05;;;3.36;68.31
59939;BME280;45801;51.810;19.444;2023-11-19T04:52:09;99206.33;;;3.38;68.25
59939;BME280;45801;51.810;19.444;2023-11-19T04:54:43;99200.73;;;3.40;68.22
59939;BME280;45801;51.810;19.444;2023-11-19T04:57:10;99191.14;;;3.41;68.17
59939;BME280;45801;51.810;19.444;2023-11-19T04:59:40;99193.63;;;3.42;68.16
59939;BME280;45801;51.810;19.444;2023-11-19T05:02:08;99198.34;;;3.43;68.23
59939;BME280;45801;51.810;19.444;2023-11-19T05:04:35;99190.14;;;3.42;68.38
59939;BME280;45801;51.810;19.444;2023-11-19T05:07:01;99181.83;;;3.42;68.30
59939;BME280;45801;51.810;19.444;2023-11-19T05:09:28;99171.69;;;3.45;68.32
59939;BME280;45801;51.810;19.444;2023-11-19T05:12:02;99161.55;;;3.46;68.30
59939;BME280;45801;51.810;19.444;2023-11-19T05:14:30;99160.14;;;3.46;68.46
59939;BME280;45801;51.810;19.444;2023-11-19T05:16:56;99160.38;;;3.45;68.56
59939;BME280;45801;51.810;19.444;2023-11-19T05:19:23;99157.44;;;3.44;68.55
59939;BME280;45801;51.810;19.444;2023-11-19T05:21:49;99158.80;;;3.47;68.53
59939;BME280;45801;51.810;19.444;2023-11-19T05:24:18;99155.39;;;3.45;68.11
59939;BME280;45801;51.810;19.444;2023-11-19T05:26:45;99151.59;;;3.45;68.41
59939;BME280;45801;51.810;19.444;2023-11-19T05:29:13;99145.56;;;3.46;68.36
59939;BME280;45801;51.810;19.444;2023-11-19T05:31:40;99145.73;;;3.45;68.05
59939;BME280;45801;51.810;19.444;2023-11-19T05:34:06;99151.71;;;3.44;68.11
59939;BME280;45801;51.810;19.444;2023-11-19T05:36:33;99153.86;;;3.43;67.99
59939;BME280;45801;51.810;19.444;2023-11-19T05:39:01;99154.41;;;3.39;68.25
59939;BME280;45801;51.810;19.444;2023-11-19T05:41:29;99155.02;;;3.38;68.18
59939;BME280;45801;51.810;19.444;2023-11-19T05:43:55;99147.92;;;3.37;67.87
59939;BME280;45801;51.810;19.444;2023-11-19T05:46:22;99143.29;;;3.38;67.99
59939;BME280;45801;51.810;19.444;2023-11-19T05:48:49;99147.83;;;3.39;67.96
59939;BME280;45801;51.810;19.444;2023-11-19T05:51:15;99152.67;;;3.41;67.78
59939;BME280;45801;51.810;19.444;2023-11-19T05:53:42;99153.52;;;3.43;67.43
59939;BME280;45801;51.810;19.444;2023-11-19T05:56:09;99151.14;;;3.44;67.74
59939;BME280;45801;51.810;19.444;2023-11-19T05:58:36;99137.61;;;3.43;67.96
59939;BME280;45801;51.810;19.444;2023-11-19T06:01:05;99126.49;;;3.43;68.10
59939;BME280;45801;51.810;19.444;2023-11-19T06:03:33;99120.45;;;3.41;68.19
59939;BME280;45801;51.810;19.444;2023-11-19T06:06:00;99121.39;;;3.42;68.43
59939;BME280;45801;51.810;19.444;2023-11-19T06:08:27;99121.91;;;3.42;68.39
59939;BME280;45801;51.810;19.444;2023-11-19T06:10:54;99117.15;;;3.40;68.29
59939;BME280;45801;51.810;19.444;2023-11-19T06:13:21;99117.17;;;3.41;68.25
59939;BME280;45801;51.810;19.444;2023-11-19T06:15:48;99119.27;;;3.43;67.91
59939;BME280;45801;51.810;19.444;2023-11-19T06:18:15;99118.36;;;3.45;67.95
59939;BME280;45801;51.810;19.444;2023-11-19T06:20:43;99115.09;;;3.43;67.72
59939;BME280;45801;51.810;19.444;2023-11-19T06:23:10;99110.52;;;3.42;68.00
59939;BME280;45801;51.810;19.444;2023-11-19T06:25:36;99105.86;;;3.40;67.89
59939;BME280;45801;51.810;19.444;2023-11-19T06:28:03;99101.58;;;3.41;67.99
59939;BME280;45801;51.810;19.444;2023-11-19T06:30:30;99093.17;;;3.42;67.85
59939;BME280;45801;51.810;19.444;2023-11-19T06:32:59;99088.23;;;3.43;67.99
59939;BME280;45801;51.810;19.444;2023-11-19T06:35:26;99082.06;;;3.44;68.02
59939;BME280;45801;51.810;19.444;2023-11-19T06:37:53;99080.80;;;3.45;68.33
59939;BME280;45801;51.810;19.444;2023-11-19T06:40:19;99075.14;;;3.46;68.14
59939;BME280;45801;51.810;19.444;2023-11-19T06:42:46;99076.39;;;3.47;68.33
59939;BME280;45801;51.810;19.444;2023-11-19T06:45:13;99077.27;;;3.47;67.90
59939;BME280;45801;51.810;19.444;2023-11-19T06:47:42;99074.15;;;3.47;67.69
59939;BME280;45801;51.810;19.444;2023-11-19T06:50:08;99071.52;;;3.49;67.72
59939;BME280;45801;51.810;19.444;2023-11-19T06:52:35;99066.13;;;3.49;67.74
59939;BME280;45801;51.810;19.444;2023-11-19T06:55:04;99062.91;;;3.47;67.99
59939;BME280;45801;51.810;19.444;2023-11-19T06:57:31;99063.17;;;3.46;67.98
59939;BME280;45801;51.810;19.444;2023-11-19T06:59:58;99066.00;;;3.42;67.71
59939;BME280;45801;51.810;19.444;2023-11-19T07:02:25;99067.81;;;3.41;67.98
59939;BME280;45801;51.810;19.444;2023-11-19T07:04:52;99064.34;;;3.40;68.12
59939;BME280;45801;51.810;19.444;2023-11-19T07:07:18;99056.51;;;3.40;68.35
59939;BME280;45801;51.810;19.444;2023-11-19T07:09:46;99052.75;;;3.40;68.06
59939;BME280;45801;51.810;19.444;2023-11-19T07:12:14;99043.27;;;3.41;68.16
59939;BME280;45801;51.810;19.444;2023-11-19T07:14:42;99039.30;;;3.41;68.22
59939;BME280;45801;51.810;19.444;2023-11-19T07:17:08;99040.45;;;3.43;68.21
59939;BME280;45801;51.810;19.444;2023-11-19T07:19:36;99039.85;;;3.44;68.47
59939;BME280;45801;51.810;19.444;2023-11-19T07:22:04;99034.63;;;3.44;68.65
59939;BME280;45801;51.810;19.444;2023-11-19T07:24:33;99029.98;;;3.42;68.68
59939;BME280;45801;51.810;19.444;2023-11-19T07:26:59;99026.55;;;3.42;68.64
59939;BME280;45801;51.810;19.444;2023-11-19T07:29:26;99023.00;;;3.43;68.77
59939;BME280;45801;51.810;19.444;2023-11-19T07:31:53;99022.70;;;3.44;68.73
59939;BME280;45801;51.810;19.444;2023-11-19T07:34:19;99020.19;;;3.48;68.73
59939;BME280;45801;51.810;19.444;2023-11-19T07:36:47;99019.34;;;3.51;68.72
59939;BME280;45801;51.810;19.444;2023-11-19T07:39:14;99019.83;;;3.48;68.14
59939;BME280;45801;51.810;19.444;2023-11-19T07:41:40;99019.44;;;3.49;68.57
59939;BME280;45801;51.810;19.444;2023-11-19T07:44:07;99011.33;;;3.47;69.02
59939;BME280;45801;51.810;19.444;2023-11-19T07:46:35;99003.95;;;3.51;68.67
59939;BME280;45801;51.810;19.444;2023-11-19T07:49:01;99002.48;;;3.49;68.44
59939;BME280;45801;51.810;19.444;2023-11-19T07:51:29;98996.77;;;3.45;68.83
59939;BME280;45801;51.810;19.444;2023-11-19T07:53:56;98994.52;;;3.44;68.72
59939;BME280;45801;51.810;19.444;2023-11-19T07:56:22;98989.40;;;3.46;68.55
59939;BME280;45801;51.810;19.444;2023-11-19T07:58:49;98986.74;;;3.50;68.66
59939;BME280;45801;51.810;19.444;2023-11-19T08:01:16;98987.06;;;3.52;68.79
59939;BME280;45801;51.810;19.444;2023-11-19T08:03:42;98974.17;;;3.56;68.54
59939;BME280;45801;51.810;19.444;2023-11-19T08:06:10;98964.08;;;3.58;68.13
59939;BME280;45801;51.810;19.444;2023-11-19T08:08:36;98958.44;;;3.59;68.22
59939;BME280;45801;51.810;19.444;2023-11-19T08:11:05;98952.85;;;3.61;68.24
59939;BME280;45801;51.810;19.444;2023-11-19T08:13:31;98943.92;;;3.63;68.35
59939;BME280;45801;51.810;19.444;2023-11-19T08:15:59;98938.48;;;3.61;68.27
59939;BME280;45801;51.810;19.444;2023-11-19T08:18:25;98933.39;;;3.60;68.11
59939;BME280;45801;51.810;19.444;2023-11-19T08:20:52;98930.73;;;3.62;68.34
59939;BME280;45801;51.810;19.444;2023-11-19T08:23:20;98928.31;;;3.59;68.24
59939;BME280;45801;51.810;19.444;2023-11-19T08:25:47;98927.58;;;3.61;68.54
59939;BME280;45801;51.810;19.444;2023-11-19T08:28:13;98922.56;;;3.64;68.71
59939;BME280;45801;51.810;19.444;2023-11-19T08:30:40;98914.14;;;3.57;67.99
59939;BME280;45801;51.810;19.444;2023-11-19T08:33:08;98902.83;;;3.57;68.33
59939;BME280;45801;51.810;19.444;2023-11-19T08:35:35;98898.73;;;3.58;68.20
59939;BME280;45801;51.810;19.444;2023-11-19T08:38:02;98896.84;;;3.58;68.19
59939;BME280;45801;51.810;19.444;2023-11-19T08:40:29;98895.91;;;3.62;68.21
59939;BME280;45801;51.810;19.444;2023-11-19T08:42:56;98893.50;;;3.62;68.18
59939;BME280;45801;51.810;19.444;2023-11-19T08:45:23;98892.79;;;3.62;68.08
59939;BME280;45801;51.810;19.444;2023-11-19T08:47:50;98886.91;;;3.62;68.12
59939;BME280;45801;51.810;19.444;2023-11-19T08:50:16;98885.22;;;3.62;68.17
59939;BME280;45801;51.810;19.444;2023-11-19T08:52:43;98882.03;;;3.64;67.79
59939;BME280;45801;51.810;19.444;2023-11-19T08:55:10;98879.91;;;3.64;67.14
59939;BME280;45801;51.810;19.444;2023-11-19T08:57:40;98876.64;;;3.66;67.79
59939;BME280;45801;51.810;19.444;2023-11-19T09:00:07;98869.73;;;3.67;67.25
59939;BME280;45801;51.810;19.444;2023-11-19T09:02:37;98869.00;;;3.66;67.74
59939;BME280;45801;51.810;19.444;2023-11-19T09:05:04;98864.73;;;3.67;67.72
59939;BME280;45801;51.810;19.444;2023-11-19T09:07:33;98858.00;;;3.67;68.23
59939;BME280;45801;51.810;19.444;2023-11-19T09:10:00;98853.95;;;3.66;68.52
59939;BME280;45801;51.810;19.444;2023-11-19T09:12:27;98848.00;;;3.68;68.35
59939;BME280;45801;51.810;19.444;2023-11-19T09:14:53;98842.70;;;3.69;68.30
59939;BME280;45801;51.810;19.444;2023-11-19T09:17:20;98835.27;;;3.69;67.96
59939;BME280;45801;51.810;19.444;2023-11-19T09:19:47;98824.69;;;3.72;68.00
59939;BME280;45801;51.810;19.444;2023-11-19T09:22:14;98816.81;;;3.74;67.93
59939;BME280;45801;51.810;19.444;2023-11-19T09:24:41;98814.52;;;3.76;67.87
59939;BME280;45801;51.810;19.444;2023-11-19T09:27:07;98809.79;;;3.80;68.01
59939;BME280;45801;51.810;19.444;2023-11-19T09:29:34;98808.34;;;3.85;68.27
59939;BME280;45801;51.810;19.444;2023-11-19T09:32:01;98797.08;;;3.87;68.09
59939;BME280;45801;51.810;19.444;2023-11-19T09:34:27;98794.94;;;3.89;67.81
59939;BME280;45801;51.810;19.444;2023-11-19T09:36:55;98792.79;;;3.91;68.05
59939;BME280;45801;51.810;19.444;2023-11-19T09:39:22;98787.19;;;3.93;68.02
59939;BME280;45801;51.810;19.444;2023-11-19T09:41:49;98785.77;;;3.93;68.10
59939;BME280;45801;51.810;19.444;2023-11-19T09:44:16;98782.78;;;3.95;67.88
59939;BME280;45801;51.810;19.444;2023-11-19T09:46:44;98780.20;;;3.97;67.92
59939;BME280;45801;51.810;19.444;2023-11-19T09:49:13;98777.11;;;3.98;67.79
59939;BME280;45801;51.810;19.444;2023-11-19T09:51:39;98776.79;;;4.01;67.71
59939;BME280;45801;51.810;19.444;2023-11-19T09:54:07;98770.02;;;4.04;67.80
59939;BME280;45801;51.810;19.444;2023-11-19T09:56:35;98765.02;;;4.04;67.72
59939;BME280;45801;51.810;19.444;2023-11-19T09:59:05;98753.78;;;4.05;67.98
59939;BME280;45801;51.810;19.444;2023-11-19T10:01:32;98742.96;;;4.06;67.65
59939;BME280;45801;51.810;19.444;2023-11-19T10:04:01;98732.51;;;4.05;67.42
59939;BME280;45801;51.810;19.444;2023-11-19T10:06:28;98722.67;;;4.03;67.55
59939;BME280;45801;51.810;19.444;2023-11-19T10:08:56;98722.31;;;4.06;67.27
59939;BME280;45801;51.810;19.444;2023-11-19T10:11:23;98716.69;;;4.08;67.57
59939;BME280;45801;51.810;19.444;2023-11-19T10:13:52;98711.58;;;4.09;67.75
59939;BME280;45801;51.810;19.444;2023-11-19T10:16:19;98711.13;;;4.11;67.47
59939;BME280;45801;51.810;19.444;2023-11-19T10:18:48;98705.86;;;4.12;67.72
59939;BME280;45801;51.810;19.444;2023-11-19T10:21:20;98695.75;;;4.17;67.62
59939;BME280;45801;51.810;19.444;2023-11-19T10:26:19;98671.05;;;4.24;67.38
59939;BME280;45801;51.810;19.444;2023-11-19T10:28:47;98657.34;;;4.27;67.33
59939;BME280;45801;51.810;19.444;2023-11-19T10:31:15;98650.66;;;4.29;67.37
59939;BME280;45801;51.810;19.444;2023-11-19T10:33:43;98636.02;;;4.36;67.80
59939;BME280;45801;51.810;19.444;2023-11-19T10:36:12;98624.73;;;4.41;67.55
59939;BME280;45801;51.810;19.444;2023-11-19T10:38:39;98619.55;;;4.45;67.44
59939;BME280;45801;51.810;19.444;2023-11-19T10:41:07;98617.45;;;4.48;67.33
59939;BME280;45801;51.810;19.444;2023-11-19T10:43:43;98614.70;;;4.49;67.13
59939;BME280;45801;51.810;19.444;2023-11-19T10:46:14;98616.69;;;4.50;67.20
59939;BME280;45801;51.810;19.444;2023-11-19T10:48:44;98609.02;;;4.52;67.73
59939;BME280;45801;51.810;19.444;2023-11-19T10:51:12;98606.41;;;4.58;67.94
59939;BME280;45801;51.810;19.444;2023-11-19T10:53:43;98599.14;;;4.64;67.97
59939;BME280;45801;51.810;19.444;2023-11-19T10:56:13;98592.80;;;4.69;67.44
59939;BME280;45801;51.810;19.444;2023-11-19T10:58:44;98588.63;;;4.72;67.63
59939;BME280;45801;51.810;19.444;2023-11-19T11:01:20;98587.79;;;4.75;67.35
59939;BME280;45801;51.810;19.444;2023-11-19T11:03:51;98586.81;;;4.83;67.35
59939;BME280;45801;51.810;19.444;2023-11-19T11:06:19;98582.30;;;4.89;67.18
59939;BME280;45801;51.810;19.444;2023-11-19T11:08:46;98584.48;;;4.91;67.29
59939;BME280;45801;51.810;19.444;2023-11-19T11:11:16;98576.20;;;4.92;67.26
59939;BME280;45801;51.810;19.444;2023-11-19T11:13:50;98575.17;;;4.95;67.43
59939;BME280;45801;51.810;19.444;2023-11-19T11:16:18;98565.81;;;5.02;66.93
59939;BME280;45801;51.810;19.444;2023-11-19T11:18:49;98559.49;;;5.07;66.75
59939;BME280;45801;51.810;19.444;2023-11-19T11:21:21;98555.96;;;5.12;66.69
59939;BME280;45801;51.810;19.444;2023-11-19T11:24:03;98553.73;;;5.10;66.76
59939;BME280;45801;51.810;19.444;2023-11-19T11:37:39;98537.23;;;5.00;67.00
59939;BME280;45801;51.810;19.444;2023-11-19T11:40:18;98534.48;;;5.10;67.21
59939;BME280;45801;51.810;19.444;2023-11-19T11:42:44;98531.30;;;5.22;66.03
59939;BME280;45801;51.810;19.444;2023-11-19T11:45:13;98525.56;;;5.22;66.30
59939;BME280;45801;51.810;19.444;2023-11-19T11:50:10;98520.73;;;5.12;65.99
59939;BME280;45801;51.810;19.444;2023-11-19T11:55:26;98514.41;;;4.99;66.57
59939;BME280;45801;51.810;19.444;2023-11-19T11:57:57;98512.15;;;4.92;67.42
59939;BME280;45801;51.810;19.444;2023-11-19T12:00:30;98514.14;;;4.87;67.58
59939;BME280;45801;51.810;19.444;2023-11-19T12:02:59;98512.30;;;4.85;67.66
59939;BME280;45801;51.810;19.444;2023-11-19T12:05:27;98512.77;;;4.84;67.46
59939;BME280;45801;51.810;19.444;2023-11-19T12:08:03;98509.66;;;4.84;67.63
59939;BME280;45801;51.810;19.444;2023-11-19T12:10:51;98508.85;;;4.75;67.89
59939;BME280;45801;51.810;19.444;2023-11-19T12:13:20;98509.34;;;4.68;68.07
59939;BME280;45801;51.810;19.444;2023-11-19T12:18:27;98503.59;;;4.55;68.72
59939;BME280;45801;51.810;19.444;2023-11-19T12:20:57;98498.63;;;4.50;68.82
59939;BME280;45801;51.810;19.444;2023-11-19T12:23:28;98498.85;;;4.45;68.69
59939;BME280;45801;51.810;19.444;2023-11-19T12:25:56;98494.41;;;4.39;68.96
59939;BME280;45801;51.810;19.444;2023-11-19T12:28:24;98489.00;;;4.36;68.98
59939;BME280;45801;51.810;19.444;2023-11-19T12:30:53;98486.91;;;4.33;69.21
59939;BME280;45801;51.810;19.444;2023-11-19T12:33:20;98485.07;;;4.31;69.36
59939;BME280;45801;51.810;19.444;2023-11-19T12:35:47;98485.27;;;4.28;69.35
59939;BME280;45801;51.810;19.444;2023-11-19T12:38:21;98490.93;;;4.24;69.54
59939;BME280;45801;51.810;19.444;2023-11-19T12:41:09;98488.66;;;4.21;69.65
59939;BME280;45801;51.810;19.444;2023-11-19T12:43:39;98486.64;;;4.18;69.70
59939;BME280;45801;51.810;19.444;2023-11-19T12:46:22;98479.51;;;4.15;69.74
59939;BME280;45801;51.810;19.444;2023-11-19T12:48:49;98470.83;;;4.08;69.80
59939;BME280;45801;51.810;19.444;2023-11-19T12:51:17;98469.20;;;4.01;70.05
59939;BME280;45801;51.810;19.444;2023-11-19T12:53:52;98461.83;;;4.00;70.21
59939;BME280;45801;51.810;19.444;2023-11-19T12:56:24;98447.59;;;3.96;70.21
59939;BME280;45801;51.810;19.444;2023-11-19T12:58:51;98436.88;;;3.94;70.40
59939;BME280;45801;51.810;19.444;2023-11-19T13:01:19;98430.35;;;3.95;70.65
59939;BME280;45801;51.810;19.444;2023-11-19T13:03:47;98418.59;;;3.92;70.67
59939;BME280;45801;51.810;19.444;2023-11-19T13:06:16;98404.80;;;3.89;70.62
59939;BME280;45801;51.810;19.444;2023-11-19T13:08:45;98386.99;;;3.90;70.55
59939;BME280;45801;51.810;19.444;2023-11-19T13:11:13;98373.06;;;3.89;70.47
59939;BME280;45801;51.810;19.444;2023-11-19T13:13:57;98379.94;;;3.88;70.81
59939;BME280;45801;51.810;19.444;2023-11-19T13:16:26;98379.64;;;3.86;70.87
59939;BME280;45801;51.810;19.444;2023-11-19T13:18:54;98381.55;;;3.80;71.10
59939;BME280;45801;51.810;19.444;2023-11-19T13:21:21;98385.21;;;3.80;70.77
59939;BME280;45801;51.810;19.444;2023-11-19T13:23:48;98382.33;;;3.78;71.12
59939;BME280;45801;51.810;19.444;2023-11-19T13:26:14;98373.98;;;3.78;70.84
59939;BME280;45801;51.810;19.444;2023-11-19T13:28:41;98372.88;;;3.76;71.09